createdAt,value
2023-11-29T00:01:12.548Z,98210.94
2023-11-29T00:03:40.948Z,98217.66
2023-11-29T00:06:09.664Z,98213.50
2023-11-29T00:08:38.308Z,98214.28
2023-11-29T00:11:08.711Z,98217.59
2023-11-29T00:13:37.863Z,98225.19
2023-11-29T00:16:09.017Z,98226.00
2023-11-29T00:18:38.637Z,98237.69
2023-11-29T00:21:08.304Z,98233.47
2023-11-29T00:23:36.972Z,98236.84
2023-11-29T00:26:05.643Z,98241.91
2023-11-29T00:28:35.213Z,98248.63
2023-11-29T00:31:03.797Z,98249.44
2023-11-29T00:33:34.001Z,98259.53
2023-11-29T00:36:02.549Z,98255.31
2023-11-29T00:38:31.352Z,98258.63
2023-11-29T00:40:59.790Z,98264.44
2023-11-29T00:43:29.473Z,98254.34
2023-11-29T00:45:57.909Z,98264.38
2023-11-29T00:48:26.882Z,98275.22
2023-11-29T00:51:07.892Z,98281.06
2023-11-29T00:53:36.548Z,98286.03
2023-11-29T00:56:05.286Z,98290.19
2023-11-29T00:58:33.775Z,98292.72
2023-11-29T01:01:02.310Z,98296.06
2023-11-29T01:03:30.904Z,98311.09
2023-11-29T01:05:59.650Z,98309.38
2023-11-29T01:08:30.248Z,98316.03
2023-11-29T01:10:58.789Z,98313.56
2023-11-29T01:13:27.258Z,98309.34
2023-11-29T01:15:55.838Z,98314.31
2023-11-29T01:18:24.445Z,98314.31
2023-11-29T01:20:53.627Z,98314.31
2023-11-29T01:23:22.297Z,98315.94
2023-11-29T01:25:52.304Z,98325.06
2023-11-29T01:28:22.518Z,98324.22
2023-11-29T01:30:51.094Z,98320.91
2023-11-29T01:33:19.596Z,98329.16
2023-11-29T01:35:48.765Z,98342.47
2023-11-29T01:38:17.326Z,98349.09
2023-11-29T01:40:46.267Z,98347.47
2023-11-29T01:43:16.268Z,98357.59
2023-11-29T01:45:44.828Z,98353.38
2023-11-29T01:48:13.457Z,98350.88
2023-11-29T01:50:42.041Z,98355.88
2023-11-29T01:53:13.347Z,98352.50
2023-11-29T01:55:44.011Z,98359.19
2023-11-29T01:58:12.546Z,98357.53
2023-11-29T02:00:44.784Z,98357.56
2023-11-29T02:03:14.117Z,98362.56
2023-11-29T02:05:42.888Z,98364.16
2023-11-29T02:08:12.066Z,98365.84
2023-11-29T02:10:41.195Z,98376.69
2023-11-29T02:13:10.673Z,98371.78
2023-11-29T02:15:39.470Z,98386.03
2023-11-29T02:18:09.939Z,98392.69
2023-11-29T02:20:38.603Z,98396.91
2023-11-29T02:23:10.746Z,98395.25
2023-11-29T02:25:40.680Z,98399.47
2023-11-29T02:28:09.206Z,98407.78
2023-11-29T02:30:38.240Z,98402.72
2023-11-29T02:33:07.625Z,98398.56
2023-11-29T02:35:36.842Z,98397.69
2023-11-29T02:38:05.560Z,98398.53
2023-11-29T02:40:34.674Z,98403.50
2023-11-29T02:43:06.159Z,98418.47
2023-11-29T02:45:37.566Z,98419.31
2023-11-29T02:48:07.048Z,98425.16
2023-11-29T02:50:35.712Z,98425.97
2023-11-29T02:53:04.236Z,98430.97
2023-11-29T02:55:33.132Z,98426.78
2023-11-29T02:58:02.375Z,98422.53
2023-11-29T03:00:32.356Z,98433.41
2023-11-29T03:03:01.103Z,98421.69
2023-11-29T03:05:29.998Z,98430.84
2023-11-29T03:07:58.460Z,98427.47
2023-11-29T03:10:26.984Z,98425.66
2023-11-29T03:12:56.140Z,98422.19
2023-11-29T03:15:24.682Z,98428.84
2023-11-29T03:17:55.881Z,98433.88
2023-11-29T03:20:24.463Z,98440.53
2023-11-29T03:22:52.883Z,98455.59
2023-11-29T03:25:21.479Z,98458.03
2023-11-29T03:27:49.965Z,98465.59
2023-11-29T03:30:18.606Z,98469.66
2023-11-29T03:32:47.169Z,98467.00
2023-11-29T03:35:17.248Z,98459.47
2023-11-29T03:37:46.223Z,98466.06
2023-11-29T03:40:14.670Z,98466.91
2023-11-29T03:42:43.238Z,98471.91
2023-11-29T03:45:12.245Z,98477.72
2023-11-29T03:47:40.993Z,98482.78
2023-11-29T03:50:10.441Z,98486.06
2023-11-29T03:52:40.968Z,98488.50
2023-11-29T03:55:13.704Z,98498.53
2023-11-29T03:57:43.485Z,98498.53
2023-11-29T04:00:12.769Z,98502.69
2023-11-29T04:02:42.252Z,98508.63
2023-11-29T04:05:11.216Z,98511.25
2023-11-29T04:07:41.588Z,98507.81
2023-11-29T04:10:11.054Z,98516.88
2023-11-29T04:12:41.145Z,98521.84
2023-11-29T04:15:09.920Z,98518.44
2023-11-29T04:17:38.491Z,98521.63
2023-11-29T04:20:08.037Z,98523.41
2023-11-29T04:22:39.557Z,98527.41
2023-11-29T04:25:09.946Z,98527.19
2023-11-29T04:27:39.138Z,98523.66
2023-11-29T04:30:08.364Z,98518.69
2023-11-29T04:32:37.239Z,98516.03
2023-11-29T04:35:06.055Z,98516.03
2023-11-29T04:37:35.376Z,98525.16
2023-11-29T04:40:05.716Z,98524.16
2023-11-29T04:42:35.677Z,98529.16
2023-11-29T04:45:04.404Z,98527.53
2023-11-29T04:47:32.922Z,98530.91
2023-11-29T04:50:01.463Z,98542.56
2023-11-29T04:52:32.165Z,98529.22
2023-11-29T04:55:00.658Z,98534.13
2023-11-29T04:57:28.981Z,98529.00
2023-11-29T04:59:58.994Z,98538.13
2023-11-29T05:02:28.151Z,98530.44
2023-11-29T05:04:56.636Z,98538.78
2023-11-29T05:07:25.249Z,98540.41
2023-11-29T05:09:54.636Z,98542.09
2023-11-29T05:12:23.211Z,98548.81
2023-11-29T05:14:51.763Z,98555.50
2023-11-29T05:17:21.972Z,98547.09
2023-11-29T05:19:51.755Z,98553.81
2023-11-29T05:22:20.834Z,98550.44
2023-11-29T05:24:49.394Z,98556.97
2023-11-29T05:27:17.916Z,98564.44
2023-11-29T05:29:46.456Z,98571.16
2023-11-29T05:32:15.043Z,98581.28
2023-11-29T05:34:45.006Z,98599.53
2023-11-29T05:37:13.727Z,98603.66
2023-11-29T05:39:42.104Z,98606.09
2023-11-29T05:42:10.831Z,98606.97
2023-11-29T05:44:39.344Z,98609.50
2023-11-29T05:47:08.078Z,98603.72
2023-11-29T05:49:36.504Z,98608.72
2023-11-29T05:52:06.907Z,98609.44
2023-11-29T05:54:35.633Z,98614.34
2023-11-29T05:57:04.801Z,98618.41
2023-11-29T05:59:33.271Z,98619.28
2023-11-29T06:02:01.707Z,98616.00
2023-11-29T06:04:30.276Z,98615.13
2023-11-29T06:06:58.839Z,98624.16
2023-11-29T06:09:32.068Z,98624.06
2023-11-29T06:12:00.798Z,98632.41
2023-11-29T06:14:29.236Z,98631.69
2023-11-29T06:16:58.200Z,98645.19
2023-11-29T06:19:26.701Z,98643.44
2023-11-29T06:21:55.511Z,98651.59
2023-11-29T06:24:24.534Z,98651.59
2023-11-29T06:26:54.683Z,98658.22
2023-11-29T06:29:23.366Z,98654.91
2023-11-29T06:31:51.993Z,98654.91
2023-11-29T06:34:20.546Z,98661.47
2023-11-29T06:36:50.301Z,98663.84
2023-11-29T06:39:20.567Z,98666.63
2023-11-29T06:41:49.655Z,98677.41
2023-11-29T06:44:20.241Z,98679.78
2023-11-29T06:46:50.098Z,98685.94
2023-11-29T06:49:18.905Z,98697.75
2023-11-29T06:51:47.356Z,98706.09
2023-11-29T06:54:15.835Z,98701.16
2023-11-29T06:56:44.285Z,98707.06
2023-11-29T06:59:12.900Z,98710.31
2023-11-29T07:01:42.777Z,98716.31
2023-11-29T07:04:11.878Z,98712.16
2023-11-29T07:06:40.956Z,98708.44
2023-11-29T07:09:09.696Z,98712.75
2023-11-29T07:11:38.305Z,98713.25
2023-11-29T07:14:07.120Z,98718.03
2023-11-29T07:16:35.929Z,98721.22
2023-11-29T07:19:26.534Z,98727.09
2023-11-29T07:21:55.263Z,98724.78
2023-11-29T07:24:23.863Z,98729.91
2023-11-29T07:26:52.522Z,98730.59
2023-11-29T07:29:21.218Z,98739.78
2023-11-29T07:31:49.915Z,98745.06
2023-11-29T07:34:18.484Z,98743.53
2023-11-29T07:36:53.049Z,98748.53
2023-11-29T07:39:22.375Z,98747.94
2023-11-29T07:41:50.940Z,98756.59
2023-11-29T07:44:23.528Z,98759.19
2023-11-29T07:46:52.793Z,98760.09
2023-11-29T07:49:21.156Z,98760.22
2023-11-29T07:51:51.409Z,98766.28
2023-11-29T07:54:20.106Z,98766.41
2023-11-29T07:56:48.807Z,98768.97
2023-11-29T08:01:47.514Z,98775.06
2023-11-29T08:04:16.487Z,98776.72
2023-11-29T08:06:45.038Z,98769.50
2023-11-29T08:09:15.034Z,98774.59
2023-11-29T08:11:46.013Z,98774.75
2023-11-29T08:14:14.612Z,98772.31
2023-11-29T08:16:43.028Z,98775.06
2023-11-29T08:19:11.550Z,98775.91
2023-11-29T08:21:40.983Z,98783.50
2023-11-29T08:24:09.631Z,98782.69
2023-11-29T08:26:39.476Z,98780.88
2023-11-29T08:29:08.158Z,98789.28
2023-11-29T08:31:36.701Z,98783.63
2023-11-29T08:34:05.760Z,98789.75
2023-11-29T08:36:34.217Z,98796.97
2023-11-29T08:39:03.202Z,98793.16
2023-11-29T08:41:31.672Z,98793.00
2023-11-29T08:44:01.932Z,98797.94
2023-11-29T08:46:31.308Z,98805.47
2023-11-29T08:48:59.782Z,98797.44
2023-11-29T08:51:30.357Z,98809.56
2023-11-29T08:54:00.469Z,98813.09
2023-11-29T08:56:29.002Z,98819.47
2023-11-29T08:58:57.866Z,98815.94
2023-11-29T09:01:27.773Z,98822.41
2023-11-29T09:03:56.466Z,98819.00
2023-11-29T09:06:25.109Z,98817.75
2023-11-29T09:08:54.642Z,98816.41
2023-11-29T09:11:23.080Z,98824.97
2023-11-29T09:13:51.928Z,98828.50
2023-11-29T09:16:20.608Z,98828.38
2023-11-29T09:18:51.226Z,98829.91
2023-11-29T09:21:20.806Z,98823.47
2023-11-29T09:23:50.824Z,98820.94
2023-11-29T09:26:19.239Z,98825.03
2023-11-29T09:28:47.740Z,98826.69
2023-11-29T09:31:16.676Z,98824.91
2023-11-29T09:33:45.510Z,98823.47
2023-11-29T09:36:17.243Z,98822.91
2023-11-29T09:38:45.799Z,98812.75
2023-11-29T09:41:15.535Z,98818.63
2023-11-29T09:43:44.164Z,98814.41
2023-11-29T09:46:12.721Z,98816.94
2023-11-29T09:48:41.501Z,98821.88
2023-11-29T09:51:09.954Z,98818.34
2023-11-29T09:53:39.973Z,98813.81
2023-11-29T09:56:09.396Z,98805.72
2023-11-29T09:58:37.731Z,98801.50
2023-11-29T10:01:06.741Z,98803.97
2023-11-29T10:03:36.211Z,98813.22
2023-11-29T10:06:05.542Z,98818.00
2023-11-29T10:08:34.408Z,98805.72
2023-11-29T10:11:04.341Z,98804.81
2023-11-29T10:13:32.807Z,98804.59
2023-11-29T10:16:01.369Z,98812.81
2023-11-29T10:18:30.394Z,98801.88
2023-11-29T10:21:06.771Z,98797.88
2023-11-29T10:23:40.826Z,98796.00
2023-11-29T10:26:10.973Z,98791.94
2023-11-29T10:28:42.254Z,98789.00
2023-11-29T10:31:11.261Z,98787.28
2023-11-29T10:33:42.178Z,98791.28
2023-11-29T10:36:12.911Z,98790.63
2023-11-29T10:38:45.527Z,98791.41
2023-11-29T10:41:19.070Z,98785.22
2023-11-29T10:43:50.961Z,98792.78
2023-11-29T10:46:24.406Z,98786.53
2023-11-29T10:48:59.020Z,98789.59
2023-11-29T10:51:28.033Z,98790.13
2023-11-29T10:53:57.952Z,98789.88
2023-11-29T10:56:28.437Z,98797.53
2023-11-29T10:59:05.583Z,98789.28
2023-11-29T11:01:35.576Z,98787.75
2023-11-29T11:04:05.000Z,98793.78
2023-11-29T11:06:37.317Z,98789.50
2023-11-29T11:09:08.057Z,98789.38
2023-11-29T11:11:44.511Z,98791.16
2023-11-29T11:14:17.138Z,98797.16
2023-11-29T11:16:55.826Z,98790.47
2023-11-29T11:19:30.101Z,98785.41
2023-11-29T11:21:58.778Z,98793.69
2023-11-29T11:24:38.505Z,98794.59
2023-11-29T11:27:10.540Z,98791.16
2023-11-29T11:29:39.213Z,98786.19
2023-11-29T11:32:08.013Z,98782.81
2023-11-29T11:34:39.191Z,98780.38
2023-11-29T11:37:08.950Z,98790.59
2023-11-29T11:39:38.584Z,98785.44
2023-11-29T11:42:07.615Z,98784.63
2023-11-29T11:44:38.016Z,98789.00
2023-11-29T11:47:07.076Z,98795.81
2023-11-29T11:49:36.633Z,98795.66
2023-11-29T11:52:06.296Z,98797.28
2023-11-29T11:54:34.723Z,98793.97
2023-11-29T11:57:03.294Z,98796.47
2023-11-29T11:59:31.734Z,98793.97
2023-11-29T12:02:01.783Z,98805.19
2023-11-29T12:04:30.443Z,98804.19
2023-11-29T12:06:59.149Z,98810.06
2023-11-29T12:09:29.435Z,98807.78
2023-11-29T12:12:09.738Z,98818.13
2023-11-29T12:14:39.194Z,98811.47
2023-11-29T12:17:09.194Z,98812.38
2023-11-29T12:19:37.715Z,98804.81
2023-11-29T12:22:07.682Z,98802.25
2023-11-29T12:24:47.794Z,98802.25
2023-11-29T12:27:18.041Z,98797.16
2023-11-29T12:29:47.649Z,98805.63
2023-11-29T12:32:18.645Z,98810.69
2023-11-29T12:34:47.254Z,98809.03
2023-11-29T12:37:17.298Z,98810.72
2023-11-29T12:39:46.568Z,98816.63
2023-11-29T12:42:15.477Z,98810.69
2023-11-29T12:44:44.602Z,98805.56
2023-11-29T12:47:14.071Z,98802.13
2023-11-29T12:49:45.064Z,98803.63
2023-11-29T12:52:13.887Z,98810.06
2023-11-29T12:54:42.263Z,98818.28
2023-11-29T12:57:11.046Z,98807.78
2023-11-29T12:59:40.127Z,98813.56
2023-11-29T13:02:09.514Z,98808.41
2023-11-29T13:04:38.274Z,98809.06
2023-11-29T13:07:08.560Z,98809.75
2023-11-29T13:09:36.116Z,98815.44
2023-11-29T13:12:04.807Z,98818.78
2023-11-29T13:14:39.448Z,98818.56
2023-11-29T13:17:08.319Z,98826.00
2023-11-29T13:19:37.021Z,98828.47
2023-11-29T13:22:06.259Z,98832.63
2023-11-29T13:24:36.057Z,98837.66
2023-11-29T13:27:07.250Z,98828.41
2023-11-29T13:29:37.011Z,98836.00
2023-11-29T13:32:05.615Z,98836.03
2023-11-29T13:34:34.594Z,98839.31
2023-11-29T13:37:03.418Z,98836.72
2023-11-29T13:39:32.549Z,98839.19
2023-11-29T13:42:03.260Z,98843.25
2023-11-29T13:44:31.879Z,98848.22
2023-11-29T13:47:00.318Z,98852.34
2023-11-29T13:49:28.940Z,98854.72
2023-11-29T13:52:04.720Z,98861.22
2023-11-29T13:54:42.309Z,98866.97
2023-11-29T13:57:12.702Z,98862.75
2023-11-29T13:59:41.449Z,98868.63
2023-11-29T14:02:17.570Z,98862.69
2023-11-29T14:04:49.549Z,98873.53
2023-11-29T14:07:19.452Z,98869.31
2023-11-29T14:09:47.816Z,98875.19
2023-11-29T14:12:19.260Z,98880.16
2023-11-29T14:14:48.377Z,98880.00
2023-11-29T14:17:16.893Z,98881.75
2023-11-29T14:19:45.875Z,98874.19
2023-11-29T14:22:14.368Z,98880.97
2023-11-29T14:24:43.670Z,98880.06
2023-11-29T14:27:12.161Z,98879.09
2023-11-29T14:29:42.695Z,98884.91
2023-11-29T14:32:11.299Z,98895.75
2023-11-29T14:34:39.663Z,98900.56
2023-11-29T14:37:08.244Z,98900.16
2023-11-29T14:39:37.254Z,98904.06
2023-11-29T14:42:07.083Z,98901.56
2023-11-29T14:44:36.071Z,98901.56
2023-11-29T14:47:07.242Z,98898.88
2023-11-29T14:49:36.147Z,98901.16
2023-11-29T14:52:04.628Z,98897.66
2023-11-29T14:54:33.147Z,98895.91
2023-11-29T14:57:02.194Z,98890.69
2023-11-29T14:59:31.800Z,98896.22
2023-11-29T15:02:01.423Z,98903.41
2023-11-29T15:04:31.555Z,98893.72
2023-11-29T15:07:00.611Z,98897.69
2023-11-29T15:09:29.319Z,98891.66
2023-11-29T15:11:58.617Z,98899.78
2023-11-29T15:14:27.304Z,98905.56
2023-11-29T15:16:55.854Z,98904.91
2023-11-29T15:19:24.306Z,98915.53
2023-11-29T15:21:58.794Z,98920.94
2023-11-29T15:24:27.982Z,98917.19
2023-11-29T15:26:59.662Z,98930.72
2023-11-29T15:29:31.527Z,98929.72
2023-11-29T15:32:02.222Z,98932.78
2023-11-29T15:34:30.795Z,98939.31
2023-11-29T15:37:01.033Z,98947.06
2023-11-29T15:39:29.620Z,98938.75
2023-11-29T15:41:59.553Z,98945.28
2023-11-29T15:44:28.418Z,98947.59
2023-11-29T15:46:56.997Z,98949.31
2023-11-29T15:49:25.704Z,98957.72
2023-11-29T15:51:54.208Z,98955.75
2023-11-29T15:54:24.169Z,98954.19
2023-11-29T15:56:52.718Z,98957.28
2023-11-29T15:59:21.260Z,98967.84
2023-11-29T16:01:49.749Z,98962.56
2023-11-29T16:04:18.521Z,98958.00
2023-11-29T16:06:46.981Z,98969.47
2023-11-29T16:09:15.498Z,98972.06
2023-11-29T16:11:45.515Z,98966.94
2023-11-29T16:14:14.545Z,98964.22
2023-11-29T16:16:43.025Z,98963.22
2023-11-29T16:19:11.822Z,98964.78
2023-11-29T16:21:40.207Z,98961.34
2023-11-29T16:24:09.688Z,98972.97
2023-11-29T16:26:38.791Z,98976.19
2023-11-29T16:29:08.738Z,98979.44
2023-11-29T16:31:37.349Z,98978.63
2023-11-29T16:34:06.287Z,98984.44
2023-11-29T16:36:34.886Z,98990.06
2023-11-29T16:39:03.236Z,98999.00
2023-11-29T16:41:31.758Z,98994.69
2023-11-29T16:44:00.252Z,98994.69
2023-11-29T16:46:32.149Z,98997.97
2023-11-29T16:49:02.226Z,98995.56
2023-11-29T16:51:30.797Z,99001.47
2023-11-29T16:53:59.377Z,98999.09
2023-11-29T16:56:27.946Z,99009.09
2023-11-29T16:58:58.516Z,99007.34
2023-11-29T17:01:27.288Z,99010.78
2023-11-29T17:03:57.616Z,99012.44
2023-11-29T17:06:26.219Z,99006.69
2023-11-29T17:08:55.737Z,99004.28
2023-11-29T17:11:24.215Z,99010.94
2023-11-29T17:13:54.434Z,99011.00
2023-11-29T17:16:23.813Z,99010.09
2023-11-29T17:18:51.220Z,99008.41
2023-11-29T17:21:23.282Z,99012.00
2023-11-29T17:23:51.971Z,99013.19
2023-11-29T17:26:20.650Z,99012.47
2023-11-29T17:28:49.700Z,99010.88
2023-11-29T17:31:18.149Z,99010.31
2023-11-29T17:33:46.768Z,99012.91
2023-11-29T17:36:15.391Z,99007.22
2023-11-29T17:38:46.213Z,99013.22
2023-11-29T17:41:14.745Z,99012.38
2023-11-29T17:43:43.319Z,99019.84
2023-11-29T17:46:12.824Z,99014.19
2023-11-29T17:48:41.365Z,99014.47
2023-11-29T17:51:10.694Z,99018.00
2023-11-29T17:53:39.152Z,99012.19
2023-11-29T17:56:09.555Z,99017.31
2023-11-29T17:58:38.069Z,99009.78
2023-11-29T18:01:06.887Z,99004.31
2023-11-29T18:03:36.108Z,99009.31
2023-11-29T18:06:04.889Z,99015.34
2023-11-29T18:08:33.916Z,99021.31
2023-11-29T18:11:02.660Z,99018.19
2023-11-29T18:13:32.514Z,99017.41
2023-11-29T18:16:04.278Z,99013.25
2023-11-29T18:18:34.166Z,99031.72
2023-11-29T18:21:02.754Z,99034.31
2023-11-29T18:23:34.552Z,99025.28
2023-11-29T18:26:05.154Z,99019.41
2023-11-29T18:28:35.190Z,99028.47
2023-11-29T18:31:03.690Z,99019.41
2023-11-29T18:33:32.739Z,99007.81
2023-11-29T18:36:01.333Z,99024.69
2023-11-29T18:38:29.991Z,99029.06
2023-11-29T18:40:58.520Z,99028.25
2023-11-29T18:43:26.890Z,99024.13
2023-11-29T18:45:56.899Z,99033.31
2023-11-29T18:48:27.124Z,99021.59
2023-11-29T18:50:55.650Z,99025.00
2023-11-29T18:53:24.176Z,99016.66
2023-11-29T18:55:52.550Z,99024.16
2023-11-29T18:58:21.104Z,99027.53
2023-11-29T19:00:49.406Z,99026.75
2023-11-29T19:03:19.952Z,99025.91
2023-11-29T19:05:49.557Z,99026.00
2023-11-29T19:08:17.943Z,99026.00
2023-11-29T19:10:46.833Z,99030.94
2023-11-29T19:13:15.235Z,99030.16
2023-11-29T19:15:43.748Z,99021.00
2023-11-29T19:18:15.885Z,99019.34
2023-11-29T19:20:45.998Z,99016.84
2023-11-29T19:23:22.627Z,99020.91
2023-11-29T19:25:59.766Z,99020.91
2023-11-29T19:28:28.447Z,99022.47
2023-11-29T19:30:57.071Z,99011.38
2023-11-29T19:33:25.622Z,99007.13
2023-11-29T19:35:55.943Z,99006.88
2023-11-29T19:38:24.623Z,99006.97
2023-11-29T19:40:52.958Z,99015.38
2023-11-29T19:43:21.800Z,99020.44
2023-11-29T19:45:50.280Z,99013.75
2023-11-29T19:48:18.777Z,99013.13
2023-11-29T19:50:47.978Z,99013.22
2023-11-29T19:53:17.882Z,99015.81
2023-11-29T19:55:46.343Z,99002.53
2023-11-29T19:58:23.659Z,99002.69
2023-11-29T20:00:59.472Z,99004.47
2023-11-29T20:03:28.121Z,99001.97
2023-11-29T20:05:56.887Z,99009.59
2023-11-29T20:08:27.059Z,99008.66
2023-11-29T20:10:58.282Z,99017.91
2023-11-29T20:13:26.735Z,99016.97
2023-11-29T20:15:55.691Z,99012.81
2023-11-29T20:18:26.959Z,99019.53
2023-11-29T20:21:01.777Z,99023.69
2023-11-29T20:23:34.762Z,99029.50
2023-11-29T20:26:03.216Z,99028.59
2023-11-29T20:28:31.630Z,99021.16
2023-11-29T20:31:01.818Z,99024.66
2023-11-29T20:33:30.698Z,99011.19
2023-11-29T20:35:59.101Z,99016.22
2023-11-29T20:38:27.797Z,99012.91
2023-11-29T20:40:57.689Z,99008.66
2023-11-29T20:43:27.189Z,99016.22
2023-11-29T20:45:58.197Z,99011.94
2023-11-29T20:48:26.753Z,99007.78
2023-11-29T20:50:56.054Z,99004.47
2023-11-29T20:53:24.524Z,99017.03
2023-11-29T20:55:54.245Z,99020.44
2023-11-29T20:58:25.484Z,99007.84
2023-11-29T21:00:54.346Z,99009.59
2023-11-29T21:03:22.825Z,99011.19
2023-11-29T21:05:51.407Z,99003.72
2023-11-29T21:08:19.859Z,99006.25
2023-11-29T21:10:48.407Z,99001.28
2023-11-29T21:13:18.105Z,99005.44
2023-11-29T21:15:48.803Z,99001.13
2023-11-29T21:18:17.489Z,98997.84
2023-11-29T21:20:48.497Z,98996.19
2023-11-29T21:23:17.246Z,99001.22
2023-11-29T21:25:46.009Z,98996.22
2023-11-29T21:28:15.416Z,99002.94
2023-11-29T21:30:43.912Z,99002.94
2023-11-29T21:33:14.073Z,99013.00
2023-11-29T21:35:42.832Z,99007.97
2023-11-29T21:38:11.267Z,99012.13
2023-11-29T21:40:39.750Z,99006.38
2023-11-29T21:43:08.724Z,99002.22
2023-11-29T21:45:37.271Z,99007.25
2023-11-29T21:48:05.769Z,99008.97
2023-11-29T21:50:35.802Z,98998.88
2023-11-29T21:53:04.426Z,98993.88
2023-11-29T21:55:32.888Z,98998.06
2023-11-29T21:58:01.383Z,98986.47
2023-11-29T22:00:29.870Z,98978.94
2023-11-29T22:02:58.448Z,98980.66
2023-11-29T22:05:26.900Z,98982.41
2023-11-29T22:07:56.849Z,98989.97
2023-11-29T22:10:27.437Z,98986.66
2023-11-29T22:12:56.235Z,98992.59
2023-11-29T22:15:24.769Z,98988.41
2023-11-29T22:17:53.534Z,98995.16
2023-11-29T22:20:22.054Z,98996.84
2023-11-29T22:22:50.862Z,98993.47
2023-11-29T22:25:20.693Z,98993.44
2023-11-29T22:27:49.393Z,98996.84
2023-11-29T22:30:18.130Z,98988.41
2023-11-29T22:32:46.761Z,98993.44
2023-11-29T22:35:15.230Z,98996.75
2023-11-29T22:37:43.985Z,98990.13
2023-11-29T22:40:13.009Z,98996.75
2023-11-29T22:42:43.317Z,99000.00
2023-11-29T22:45:12.038Z,98989.06
2023-11-29T22:47:40.577Z,98987.41
2023-11-29T22:50:09.453Z,98984.03
2023-11-29T22:52:37.944Z,98986.53
2023-11-29T22:55:07.276Z,98976.44
2023-11-29T22:57:36.084Z,98972.16
2023-11-29T23:00:08.028Z,98974.56
2023-11-29T23:02:36.818Z,98977.13
2023-11-29T23:05:05.728Z,98974.56
2023-11-29T23:07:34.699Z,98971.09
2023-11-29T23:10:03.733Z,98964.25
2023-11-29T23:12:32.247Z,98967.56
2023-11-29T23:15:00.979Z,98967.59
2023-11-29T23:17:31.234Z,98968.38
2023-11-29T23:20:00.683Z,98965.84
2023-11-29T23:22:29.601Z,98960.72
2023-11-29T23:24:58.471Z,98958.97
2023-11-29T23:27:27.667Z,98962.22
2023-11-29T23:29:56.214Z,98957.09
2023-11-29T23:32:24.677Z,98957.84
2023-11-29T23:34:54.605Z,98960.28
2023-11-29T23:37:23.891Z,98963.66
2023-11-29T23:39:52.488Z,98961.16
2023-11-29T23:42:21.146Z,98949.44
2023-11-29T23:44:49.661Z,98951.91
2023-11-29T23:47:18.185Z,98952.00
2023-11-29T23:49:46.707Z,98950.31
2023-11-29T23:52:16.871Z,98939.41
2023-11-29T23:54:45.553Z,98951.06
2023-11-29T23:57:14.209Z,98948.59
2023-11-29T23:59:42.805Z,98944.22
